createdAt,value
2017-08-07T13:05:14.566Z,23.60
2017-08-07T13:07:42.157Z,25.10
2017-08-07T13:10:10.527Z,26.00
2017-08-07T13:12:38.158Z,25.90
2017-08-07T13:15:06.008Z,25.90
2017-08-07T13:17:33.588Z,26.10
2017-08-07T13:20:01.171Z,26.10
2017-08-07T13:22:28.790Z,27.10
2017-08-07T13:24:56.436Z,26.30
2017-08-07T13:27:24.327Z,27.00
2017-08-07T13:29:51.924Z,27.10
2017-08-07T13:32:19.490Z,26.90
2017-08-07T13:34:47.415Z,26.90
2017-08-07T13:37:15.008Z,27.60
2017-08-07T13:39:43.371Z,26.90
2017-08-07T13:42:10.959Z,26.80
2017-08-07T13:44:39.316Z,27.90
2017-08-07T13:47:07.268Z,27.90
2017-08-07T13:49:34.866Z,27.30
2017-08-07T13:52:03.212Z,26.60
2017-08-07T13:54:30.829Z,26.60
2017-08-07T13:56:58.394Z,24.90
2017-08-07T13:59:25.979Z,25.70
2017-08-07T14:01:53.569Z,25.20
2017-08-07T14:04:21.919Z,26.10
2017-08-07T14:06:49.525Z,26.10
2017-08-07T14:09:17.131Z,25.90
2017-08-07T14:11:44.744Z,26.30
2017-08-07T14:14:12.332Z,26.50
2017-08-07T14:16:39.903Z,26.80
2017-08-07T14:19:07.522Z,26.80
2017-08-07T14:21:35.097Z,25.80
2017-08-07T14:24:02.783Z,26.20
2017-08-07T14:26:30.738Z,26.60
2017-08-07T14:28:58.321Z,26.40
2017-08-07T14:31:25.921Z,26.20
2017-08-07T14:33:54.272Z,26.10
2017-08-07T14:36:21.892Z,26.10
2017-08-07T14:38:49.462Z,26.90
2017-08-07T14:41:17.028Z,26.60
2017-08-07T14:43:44.622Z,26.50
2017-08-07T14:46:12.199Z,27.00
2017-08-07T14:48:40.699Z,27.00
2017-08-07T14:51:08.296Z,27.00
2017-08-07T14:53:35.940Z,27.40
2017-08-07T14:56:03.555Z,27.40
2017-08-07T14:58:31.905Z,27.50
2017-08-07T15:00:59.528Z,27.40
2017-08-07T15:03:27.116Z,27.50
2017-08-07T15:05:56.339Z,26.70
2017-08-07T15:08:24.551Z,26.80
2017-08-07T15:10:52.150Z,27.10
2017-08-07T15:13:19.784Z,27.80
2017-08-07T15:15:47.347Z,27.30
2017-08-07T15:18:15.231Z,27.70
2017-08-07T15:20:42.815Z,28.20
2017-08-07T15:23:10.429Z,28.30
2017-08-07T15:25:38.026Z,28.20
2017-08-07T15:28:05.692Z,28.60
2017-08-07T15:30:33.333Z,28.70
2017-08-07T15:33:01.085Z,29.10
2017-08-07T15:35:28.940Z,28.90
2017-08-07T15:37:56.536Z,29.10
2017-08-07T15:40:24.095Z,28.40
2017-08-07T15:42:51.724Z,28.50
2017-08-07T15:45:19.312Z,28.80
2017-08-07T15:47:46.908Z,28.50
2017-08-07T15:50:16.210Z,29.30
2017-08-07T15:52:44.168Z,29.30
2017-08-07T15:55:12.519Z,29.50
2017-08-07T15:57:40.864Z,29.40
2017-08-07T16:00:08.490Z,29.50
2017-08-07T16:02:37.025Z,29.40
2017-08-07T16:05:04.862Z,29.30
2017-08-07T16:07:32.448Z,29.90
2017-08-07T16:10:00.284Z,29.70
2017-08-07T16:12:27.907Z,30.00
2017-08-07T16:14:55.527Z,30.00
2017-08-07T16:17:23.171Z,30.00
2017-08-07T16:19:50.772Z,30.80
2017-08-07T16:22:18.386Z,30.20
2017-08-07T16:24:46.238Z,29.90
2017-08-07T16:27:14.582Z,29.90
2017-08-07T16:29:54.423Z,29.90
2017-08-07T16:32:22.025Z,30.00
2017-08-07T16:34:49.683Z,30.00
2017-08-07T16:37:18.039Z,30.00
2017-08-07T16:39:45.640Z,30.00
2017-08-07T16:42:13.245Z,30.40
2017-08-07T16:44:40.820Z,29.40
2017-08-07T16:47:08.781Z,30.80
2017-08-07T16:49:36.391Z,30.90
2017-08-07T16:52:03.956Z,30.60
2017-08-07T16:54:31.580Z,30.90
2017-08-07T16:56:59.927Z,32.00
2017-08-07T16:59:27.547Z,31.90
2017-08-07T17:01:55.128Z,32.50
2017-08-07T17:04:23.188Z,32.80
2017-08-07T17:06:50.813Z,32.50
2017-08-07T17:09:19.152Z,33.60
2017-08-07T17:11:46.795Z,33.60
2017-08-07T17:14:15.275Z,34.10
2017-08-07T17:16:42.872Z,34.10
2017-08-07T17:19:10.479Z,33.80
2017-08-07T17:21:38.470Z,34.60
2017-08-07T17:24:06.052Z,34.60
2017-08-07T17:26:33.636Z,33.50
2017-08-07T17:29:02.012Z,34.00
2017-08-07T17:31:30.368Z,34.30
2017-08-07T17:33:58.041Z,34.20
2017-08-07T17:36:25.618Z,34.00
2017-08-07T17:38:53.561Z,34.30
2017-08-07T17:41:21.146Z,34.50
2017-08-07T17:43:48.745Z,34.00
2017-08-07T17:46:16.325Z,34.90
2017-08-07T17:48:43.923Z,34.80
2017-08-07T17:51:12.587Z,35.90
2017-08-07T17:53:40.975Z,35.90
2017-08-07T17:56:09.302Z,35.80
2017-08-07T17:58:36.923Z,37.00
2017-08-07T18:01:04.487Z,36.50
2017-08-07T18:03:32.094Z,37.00
2017-08-07T18:05:59.681Z,37.70
2017-08-07T18:08:27.648Z,37.30
2017-08-07T18:10:55.245Z,37.90
2017-08-07T18:13:22.823Z,38.40
2017-08-07T18:15:50.431Z,38.60
2017-08-07T18:18:18.045Z,39.10
2017-08-07T18:20:45.930Z,39.40
2017-08-07T18:23:13.509Z,39.80
2017-08-07T18:25:41.215Z,40.20
2017-08-07T18:28:09.034Z,40.30
2017-08-07T18:30:36.623Z,40.60
2017-08-07T18:33:05.229Z,41.30
2017-08-07T18:35:32.778Z,41.30
2017-08-07T18:38:00.406Z,41.70
2017-08-07T18:40:28.005Z,42.00
2017-08-07T18:42:55.618Z,42.60
2017-08-07T18:45:23.575Z,43.00
2017-08-07T18:47:51.383Z,45.30
2017-08-07T18:50:23.866Z,46.10
2017-08-07T18:52:51.476Z,46.20
2017-08-07T18:55:19.060Z,47.00
2017-08-07T18:57:46.674Z,47.60
2017-08-07T19:00:14.256Z,48.20
2017-08-07T19:02:41.879Z,48.70
2017-08-07T19:05:09.476Z,49.40
2017-08-07T19:07:37.346Z,49.70
2017-08-07T19:10:04.987Z,49.90
2017-08-07T19:12:32.588Z,50.00
2017-08-07T19:15:02.040Z,50.60
2017-08-07T19:17:29.624Z,50.50
2017-08-07T19:19:57.494Z,50.90
2017-08-07T19:22:25.075Z,51.00
2017-08-07T19:24:52.789Z,51.40
2017-08-07T19:27:20.391Z,55.50
2017-08-07T19:29:47.980Z,55.70
2017-08-07T19:32:15.639Z,57.00
2017-08-07T19:34:43.449Z,57.60
2017-08-07T19:37:11.408Z,56.70
2017-08-07T19:39:38.968Z,55.90
2017-08-07T19:42:06.623Z,55.40
2017-08-07T19:44:34.233Z,57.00
2017-08-07T19:47:01.849Z,58.50
2017-08-07T19:49:29.456Z,60.90
2017-08-07T19:51:57.065Z,60.50
2017-08-07T19:54:24.933Z,61.50
2017-08-07T19:56:52.638Z,62.10
2017-08-07T19:59:20.220Z,61.40
2017-08-07T20:01:47.831Z,61.90
2017-08-07T20:04:15.438Z,62.10
2017-08-07T20:06:43.825Z,61.10
2017-08-07T20:09:11.448Z,61.10
2017-08-07T20:11:39.403Z,60.60
2017-08-07T20:14:07.849Z,60.40
2017-08-07T20:16:35.490Z,60.30
2017-08-07T20:19:03.383Z,60.20
2017-08-07T20:21:30.983Z,61.10
2017-08-07T20:23:58.628Z,62.50
2017-08-07T20:26:26.249Z,62.90
2017-08-07T20:28:54.262Z,62.30
2017-08-07T20:31:21.903Z,62.70
2017-08-07T20:33:49.500Z,63.30
2017-08-07T20:36:17.129Z,63.80
2017-08-07T20:38:44.753Z,64.10
2017-08-07T20:41:13.124Z,64.70
2017-08-07T20:43:41.483Z,64.80
2017-08-07T20:46:09.447Z,64.70
2017-08-07T20:48:37.076Z,64.70
2017-08-07T20:51:04.960Z,65.80
2017-08-07T20:53:32.551Z,66.00
2017-08-07T20:56:00.901Z,67.30
2017-08-07T20:58:28.514Z,67.10
2017-08-07T21:00:56.093Z,67.30
2017-08-07T21:03:23.957Z,67.30
2017-08-07T21:05:51.559Z,66.80
2017-08-07T21:08:19.134Z,67.00
2017-08-07T21:10:47.490Z,68.20
2017-08-07T21:13:15.111Z,68.20
2017-08-07T21:15:42.748Z,68.90
2017-08-07T21:18:10.363Z,68.50
2017-08-07T21:20:38.352Z,69.80
2017-08-07T21:23:06.064Z,70.50
2017-08-07T21:25:33.653Z,70.40
2017-08-07T21:28:01.264Z,70.50
2017-08-07T21:30:28.870Z,71.20
2017-08-07T21:32:56.621Z,70.90
2017-08-07T21:35:24.182Z,71.00
2017-08-07T21:37:52.067Z,71.60
2017-08-07T21:40:19.666Z,71.10
2017-08-07T21:42:48.044Z,71.50
2017-08-07T21:45:16.454Z,71.90
2017-08-07T21:47:44.011Z,71.70
2017-08-07T21:50:11.643Z,72.10
2017-08-07T21:52:39.989Z,73.30
2017-08-07T21:55:08.026Z,73.20
2017-08-07T21:57:35.614Z,72.50
2017-08-07T22:00:03.201Z,74.20
2017-08-07T22:02:31.616Z,73.10
2017-08-07T22:04:59.223Z,73.10
2017-08-07T22:07:26.860Z,73.30
2017-08-07T22:09:54.470Z,73.80
2017-08-07T22:12:23.102Z,74.40
2017-08-07T22:14:50.732Z,74.40
2017-08-07T22:17:18.430Z,74.90
2017-08-07T22:19:46.051Z,74.10
2017-08-07T22:22:13.628Z,74.00
2017-08-07T22:24:41.232Z,73.60
2017-08-07T22:27:08.851Z,74.10
2017-08-07T22:29:36.741Z,73.80
2017-08-07T22:32:04.315Z,74.50
2017-08-07T22:34:31.906Z,74.60
2017-08-07T22:36:59.527Z,74.30
2017-08-07T22:39:27.110Z,75.00
2017-08-07T22:41:55.510Z,74.60
2017-08-07T22:44:23.087Z,74.60
2017-08-07T22:46:50.982Z,75.00
2017-08-07T22:49:18.588Z,74.40
2017-08-07T22:51:46.951Z,75.40
2017-08-07T22:54:14.546Z,75.40
2017-08-07T22:56:42.292Z,75.60
2017-08-07T22:59:10.729Z,76.40
2017-08-07T23:01:38.303Z,76.40
2017-08-07T23:04:06.152Z,76.00
2017-08-07T23:06:33.745Z,75.20
2017-08-07T23:09:01.334Z,74.80
2017-08-07T23:11:28.955Z,74.30
2017-08-07T23:13:56.526Z,74.50
2017-08-07T23:16:25.188Z,74.30
2017-08-07T23:18:52.758Z,74.30
2017-08-07T23:21:20.364Z,74.40
2017-08-07T23:23:47.965Z,74.40
2017-08-07T23:26:15.548Z,74.60
2017-08-07T23:28:43.910Z,76.20
2017-08-07T23:31:11.502Z,76.20
2017-08-07T23:33:39.416Z,75.90
2017-08-07T23:36:06.998Z,75.70
2017-08-07T23:38:34.573Z,75.50
2017-08-07T23:41:02.968Z,74.70
2017-08-07T23:43:30.529Z,74.70
2017-08-07T23:45:58.127Z,74.70
2017-08-07T23:48:25.709Z,74.20
2017-08-07T23:50:53.546Z,74.70
2017-08-07T23:53:21.137Z,75.00
2017-08-07T23:55:48.705Z,75.60
2017-08-07T23:58:16.297Z,75.10
